Terminal Aerodrome Forecast
Issued by NWS

Home | Current Version | Previous Version | Text Only | Print | Product List | Glossary On
Versions: 1 2 3 4 5 6 7 8 9 10 11 12 13
000
FTUS44 KEPZ 242320
TAFDMN
TAF
KDMN 242320Z 2500/2524 29008KT P6SM VCTS SCT110CB BKN200 BKN250
      TEMPO 2500/2501 VRB25G40KT -TSRAGS BKN100CB
     FM250200 33012G20KT P6SM SCT100 BKN200
     FM250600 05006KT P6SM SCT150 BKN250
     FM251300 05008KT P6SM FEW150
     FM252000 09007KT P6SM FEW100 SCT140=

USA.gov is the U.S. government's official web portal to all federal, state and local government web resources and services.